sensor_id;sensor_type;location;lat;lon;timestamp;P1;durP1;ratioP1;P2;durP2;ratioP2
1328;SDS011;658;48.820;9.354;2023-07-29T00:02:09;1.03;;;1.03;;
1328;SDS011;658;48.820;9.354;2023-07-29T00:06:10;0.70;;;0.70;;
1328;SDS011;658;48.820;9.354;2023-07-29T00:10:11;0.70;;;0.70;;
1328;SDS011;658;48.820;9.354;2023-07-29T00:14:11;0.80;;;0.80;;
1328;SDS011;658;48.820;9.354;2023-07-29T00:18:12;0.80;;;0.80;;
1328;SDS011;658;48.820;9.354;2023-07-29T00:22:13;0.97;;;0.97;;
1328;SDS011;658;48.820;9.354;2023-07-29T00:26:16;1.40;;;1.30;;
1328;SDS011;658;48.820;9.354;2023-07-29T00:30:16;0.80;;;0.80;;
1328;SDS011;658;48.820;9.354;2023-07-29T00:34:17;0.83;;;0.83;;
1328;SDS011;658;48.820;9.354;2023-07-29T00:38:19;0.97;;;0.97;;
1328;SDS011;658;48.820;9.354;2023-07-29T00:42:20;1.03;;;1.00;;
1328;SDS011;658;48.820;9.354;2023-07-29T00:46:20;0.90;;;0.90;;
1328;SDS011;658;48.820;9.354;2023-07-29T00:50:22;0.90;;;0.90;;
1328;SDS011;658;48.820;9.354;2023-07-29T00:54:23;0.80;;;0.80;;
1328;SDS011;658;48.820;9.354;2023-07-29T00:58:23;1.37;;;1.27;;
1328;SDS011;658;48.820;9.354;2023-07-29T01:02:24;0.80;;;0.80;;
1328;SDS011;658;48.820;9.354;2023-07-29T01:11:03;0.93;;;0.93;;
1328;SDS011;658;48.820;9.354;2023-07-29T01:24:00;0.77;;;0.77;;
1328;SDS011;658;48.820;9.354;2023-07-29T01:28:01;0.90;;;0.90;;
1328;SDS011;658;48.820;9.354;2023-07-29T01:32:04;0.80;;;0.80;;
1328;SDS011;658;48.820;9.354;2023-07-29T01:36:11;0.70;;;0.70;;
1328;SDS011;658;48.820;9.354;2023-07-29T01:40:18;0.70;;;0.70;;
1328;SDS011;658;48.820;9.354;2023-07-29T01:44:21;0.80;;;0.80;;
1328;SDS011;658;48.820;9.354;2023-07-29T01:48:22;0.90;;;0.90;;
1328;SDS011;658;48.820;9.354;2023-07-29T01:52:23;0.70;;;0.70;;
1328;SDS011;658;48.820;9.354;2023-07-29T01:56:24;0.70;;;0.70;;
1328;SDS011;658;48.820;9.354;2023-07-29T02:00:24;0.90;;;0.90;;
1328;SDS011;658;48.820;9.354;2023-07-29T02:04:25;0.77;;;0.77;;
1328;SDS011;658;48.820;9.354;2023-07-29T02:08:28;0.60;;;0.60;;
1328;SDS011;658;48.820;9.354;2023-07-29T02:12:28;1.10;;;1.00;;
1328;SDS011;658;48.820;9.354;2023-07-29T02:16:29;0.70;;;0.70;;
1328;SDS011;658;48.820;9.354;2023-07-29T02:20:29;0.80;;;0.80;;
1328;SDS011;658;48.820;9.354;2023-07-29T02:24:30;0.90;;;0.80;;
1328;SDS011;658;48.820;9.354;2023-07-29T02:28:30;1.20;;;1.10;;
1328;SDS011;658;48.820;9.354;2023-07-29T02:32:31;0.90;;;0.90;;
1328;SDS011;658;48.820;9.354;2023-07-29T02:36:32;0.97;;;0.90;;
1328;SDS011;658;48.820;9.354;2023-07-29T02:40:32;0.50;;;0.50;;
1328;SDS011;658;48.820;9.354;2023-07-29T02:44:33;0.80;;;0.80;;
1328;SDS011;658;48.820;9.354;2023-07-29T02:48:33;0.70;;;0.70;;
1328;SDS011;658;48.820;9.354;2023-07-29T02:52:34;0.80;;;0.80;;
1328;SDS011;658;48.820;9.354;2023-07-29T02:56:34;0.97;;;0.97;;
1328;SDS011;658;48.820;9.354;2023-07-29T03:00:35;0.80;;;0.80;;
1328;SDS011;658;48.820;9.354;2023-07-29T03:04:36;0.73;;;0.73;;
1328;SDS011;658;48.820;9.354;2023-07-29T03:08:36;0.70;;;0.70;;
1328;SDS011;658;48.820;9.354;2023-07-29T03:12:37;0.80;;;0.80;;
1328;SDS011;658;48.820;9.354;2023-07-29T03:16:37;0.70;;;0.70;;
1328;SDS011;658;48.820;9.354;2023-07-29T03:20:40;0.70;;;0.70;;
1328;SDS011;658;48.820;9.354;2023-07-29T03:24:41;0.70;;;0.70;;
1328;SDS011;658;48.820;9.354;2023-07-29T03:28:42;0.70;;;0.70;;
1328;SDS011;658;48.820;9.354;2023-07-29T03:32:46;1.00;;;1.00;;
1328;SDS011;658;48.820;9.354;2023-07-29T03:36:47;0.60;;;0.60;;
1328;SDS011;658;48.820;9.354;2023-07-29T03:40:48;0.73;;;0.73;;
1328;SDS011;658;48.820;9.354;2023-07-29T03:44:49;0.70;;;0.70;;
1328;SDS011;658;48.820;9.354;2023-07-29T03:48:51;0.70;;;0.70;;
1328;SDS011;658;48.820;9.354;2023-07-29T03:52:52;0.70;;;0.70;;
1328;SDS011;658;48.820;9.354;2023-07-29T03:56:52;0.60;;;0.60;;
1328;SDS011;658;48.820;9.354;2023-07-29T04:00:53;0.60;;;0.60;;
1328;SDS011;658;48.820;9.354;2023-07-29T04:04:54;1.00;;;0.90;;
1328;SDS011;658;48.820;9.354;2023-07-29T04:08:54;0.60;;;0.60;;
1328;SDS011;658;48.820;9.354;2023-07-29T04:12:55;0.70;;;0.70;;
1328;SDS011;658;48.820;9.354;2023-07-29T04:16:58;0.63;;;0.63;;
1328;SDS011;658;48.820;9.354;2023-07-29T04:20:58;0.70;;;0.70;;
1328;SDS011;658;48.820;9.354;2023-07-29T04:24:59;0.60;;;0.60;;
1328;SDS011;658;48.820;9.354;2023-07-29T04:28:59;0.57;;;0.50;;
1328;SDS011;658;48.820;9.354;2023-07-29T04:33:00;0.80;;;0.80;;
1328;SDS011;658;48.820;9.354;2023-07-29T04:37:00;0.60;;;0.60;;
1328;SDS011;658;48.820;9.354;2023-07-29T04:41:01;0.63;;;0.63;;
1328;SDS011;658;48.820;9.354;2023-07-29T04:45:02;0.70;;;0.70;;
1328;SDS011;658;48.820;9.354;2023-07-29T04:49:03;0.90;;;0.90;;
1328;SDS011;658;48.820;9.354;2023-07-29T04:53:03;0.60;;;0.60;;
1328;SDS011;658;48.820;9.354;2023-07-29T04:57:04;0.63;;;0.63;;
1328;SDS011;658;48.820;9.354;2023-07-29T05:01:05;0.70;;;0.70;;
1328;SDS011;658;48.820;9.354;2023-07-29T05:05:06;0.80;;;0.80;;
1328;SDS011;658;48.820;9.354;2023-07-29T05:09:14;0.93;;;0.87;;
1328;SDS011;658;48.820;9.354;2023-07-29T05:13:15;0.70;;;0.70;;
1328;SDS011;658;48.820;9.354;2023-07-29T05:17:16;0.63;;;0.63;;
1328;SDS011;658;48.820;9.354;2023-07-29T05:21:16;0.70;;;0.70;;
1328;SDS011;658;48.820;9.354;2023-07-29T05:25:17;0.60;;;0.60;;
1328;SDS011;658;48.820;9.354;2023-07-29T05:29:18;0.60;;;0.60;;
1328;SDS011;658;48.820;9.354;2023-07-29T05:33:18;0.53;;;0.53;;
1328;SDS011;658;48.820;9.354;2023-07-29T05:37:19;0.83;;;0.83;;
1328;SDS011;658;48.820;9.354;2023-07-29T05:41:20;0.77;;;0.77;;
1328;SDS011;658;48.820;9.354;2023-07-29T05:45:20;0.70;;;0.70;;
1328;SDS011;658;48.820;9.354;2023-07-29T05:49:21;0.80;;;0.80;;
1328;SDS011;658;48.820;9.354;2023-07-29T05:53:22;0.70;;;0.70;;
1328;SDS011;658;48.820;9.354;2023-07-29T05:57:25;0.50;;;0.50;;
1328;SDS011;658;48.820;9.354;2023-07-29T06:01:25;0.57;;;0.50;;
1328;SDS011;658;48.820;9.354;2023-07-29T06:05:28;0.63;;;0.63;;
1328;SDS011;658;48.820;9.354;2023-07-29T06:09:31;0.60;;;0.60;;
1328;SDS011;658;48.820;9.354;2023-07-29T06:13:32;0.60;;;0.60;;
1328;SDS011;658;48.820;9.354;2023-07-29T06:17:32;0.80;;;0.80;;
1328;SDS011;658;48.820;9.354;2023-07-29T06:21:35;0.63;;;0.63;;
1328;SDS011;658;48.820;9.354;2023-07-29T06:25:36;0.70;;;0.70;;
1328;SDS011;658;48.820;9.354;2023-07-29T06:29:36;0.83;;;0.83;;
1328;SDS011;658;48.820;9.354;2023-07-29T06:33:37;0.87;;;0.63;;
1328;SDS011;658;48.820;9.354;2023-07-29T06:37:40;0.63;;;0.60;;
1328;SDS011;658;48.820;9.354;2023-07-29T06:41:40;0.60;;;0.60;;
1328;SDS011;658;48.820;9.354;2023-07-29T06:45:41;1.17;;;0.70;;
1328;SDS011;658;48.820;9.354;2023-07-29T06:49:45;0.80;;;0.80;;
1328;SDS011;658;48.820;9.354;2023-07-29T06:53:46;0.60;;;0.60;;
1328;SDS011;658;48.820;9.354;2023-07-29T06:57:47;0.73;;;0.73;;
1328;SDS011;658;48.820;9.354;2023-07-29T07:01:48;0.60;;;0.60;;
1328;SDS011;658;48.820;9.354;2023-07-29T07:05:48;0.50;;;0.50;;
1328;SDS011;658;48.820;9.354;2023-07-29T07:09:49;0.70;;;0.70;;
1328;SDS011;658;48.820;9.354;2023-07-29T07:13:50;0.60;;;0.60;;
1328;SDS011;658;48.820;9.354;2023-07-29T07:17:51;1.07;;;0.70;;
1328;SDS011;658;48.820;9.354;2023-07-29T07:21:52;0.60;;;0.60;;
1328;SDS011;658;48.820;9.354;2023-07-29T07:25:52;0.70;;;0.70;;
1328;SDS011;658;48.820;9.354;2023-07-29T07:29:53;0.80;;;0.80;;
1328;SDS011;658;48.820;9.354;2023-07-29T07:33:53;0.80;;;0.80;;
1328;SDS011;658;48.820;9.354;2023-07-29T07:37:54;0.60;;;0.60;;
1328;SDS011;658;48.820;9.354;2023-07-29T07:41:54;0.97;;;0.90;;
1328;SDS011;658;48.820;9.354;2023-07-29T07:45:59;1.20;;;0.80;;
1328;SDS011;658;48.820;9.354;2023-07-29T07:50:00;0.73;;;0.73;;
1328;SDS011;658;48.820;9.354;2023-07-29T07:54:03;0.67;;;0.67;;
1328;SDS011;658;48.820;9.354;2023-07-29T07:58:03;0.60;;;0.60;;
1328;SDS011;658;48.820;9.354;2023-07-29T08:02:04;0.60;;;0.60;;
1328;SDS011;658;48.820;9.354;2023-07-29T08:06:05;0.77;;;0.77;;
1328;SDS011;658;48.820;9.354;2023-07-29T08:10:08;0.70;;;0.70;;
1328;SDS011;658;48.820;9.354;2023-07-29T08:14:09;0.80;;;0.80;;
1328;SDS011;658;48.820;9.354;2023-07-29T08:18:09;0.80;;;0.80;;
1328;SDS011;658;48.820;9.354;2023-07-29T08:22:10;0.70;;;0.70;;
1328;SDS011;658;48.820;9.354;2023-07-29T08:26:13;0.70;;;0.70;;
1328;SDS011;658;48.820;9.354;2023-07-29T08:30:13;0.60;;;0.60;;
1328;SDS011;658;48.820;9.354;2023-07-29T08:34:15;0.70;;;0.70;;
1328;SDS011;658;48.820;9.354;2023-07-29T08:38:16;0.80;;;0.80;;
1328;SDS011;658;48.820;9.354;2023-07-29T08:42:19;0.60;;;0.60;;
1328;SDS011;658;48.820;9.354;2023-07-29T08:46:20;0.60;;;0.60;;
1328;SDS011;658;48.820;9.354;2023-07-29T08:50:21;0.50;;;0.50;;
1328;SDS011;658;48.820;9.354;2023-07-29T08:54:22;0.73;;;0.73;;
1328;SDS011;658;48.820;9.354;2023-07-29T08:58:23;0.70;;;0.70;;
1328;SDS011;658;48.820;9.354;2023-07-29T09:02:25;0.80;;;0.80;;
1328;SDS011;658;48.820;9.354;2023-07-29T09:06:25;0.90;;;0.90;;
1328;SDS011;658;48.820;9.354;2023-07-29T09:10:34;0.67;;;0.67;;
1328;SDS011;658;48.820;9.354;2023-07-29T09:14:38;0.50;;;0.50;;
1328;SDS011;658;48.820;9.354;2023-07-29T09:18:38;0.70;;;0.70;;
1328;SDS011;658;48.820;9.354;2023-07-29T09:22:39;0.83;;;0.83;;
1328;SDS011;658;48.820;9.354;2023-07-29T09:26:40;0.60;;;0.60;;
1328;SDS011;658;48.820;9.354;2023-07-29T09:30:49;0.67;;;0.67;;
1328;SDS011;658;48.820;9.354;2023-07-29T09:34:51;1.17;;;0.60;;
1328;SDS011;658;48.820;9.354;2023-07-29T09:38:52;0.70;;;0.70;;
1328;SDS011;658;48.820;9.354;2023-07-29T09:42:56;0.80;;;0.80;;
1328;SDS011;658;48.820;9.354;2023-07-29T09:46:57;0.70;;;0.70;;
1328;SDS011;658;48.820;9.354;2023-07-29T09:50:58;0.80;;;0.80;;
1328;SDS011;658;48.820;9.354;2023-07-29T09:54:58;0.70;;;0.70;;
1328;SDS011;658;48.820;9.354;2023-07-29T09:58:59;0.63;;;0.63;;
1328;SDS011;658;48.820;9.354;2023-07-29T10:03:02;0.70;;;0.70;;
1328;SDS011;658;48.820;9.354;2023-07-29T10:07:04;0.97;;;0.70;;
1328;SDS011;658;48.820;9.354;2023-07-29T10:11:06;0.80;;;0.77;;
1328;SDS011;658;48.820;9.354;2023-07-29T10:15:08;0.77;;;0.77;;
1328;SDS011;658;48.820;9.354;2023-07-29T10:19:09;0.63;;;0.63;;
1328;SDS011;658;48.820;9.354;2023-07-29T10:23:10;0.80;;;0.80;;
1328;SDS011;658;48.820;9.354;2023-07-29T10:27:12;0.70;;;0.70;;
1328;SDS011;658;48.820;9.354;2023-07-29T10:31:18;0.67;;;0.67;;
1328;SDS011;658;48.820;9.354;2023-07-29T10:35:23;0.80;;;0.80;;
1328;SDS011;658;48.820;9.354;2023-07-29T10:39:27;0.77;;;0.77;;
1328;SDS011;658;48.820;9.354;2023-07-29T10:43:42;0.60;;;0.60;;
1328;SDS011;658;48.820;9.354;2023-07-29T10:47:43;0.60;;;0.60;;
1328;SDS011;658;48.820;9.354;2023-07-29T10:51:43;0.70;;;0.70;;
1328;SDS011;658;48.820;9.354;2023-07-29T10:55:44;0.90;;;0.90;;
1328;SDS011;658;48.820;9.354;2023-07-29T10:59:54;0.83;;;0.83;;
1328;SDS011;658;48.820;9.354;2023-07-29T11:16:42;0.70;;;0.70;;
1328;SDS011;658;48.820;9.354;2023-07-29T11:20:44;0.60;;;0.60;;
1328;SDS011;658;48.820;9.354;2023-07-29T11:24:45;0.70;;;0.70;;
1328;SDS011;658;48.820;9.354;2023-07-29T11:28:45;0.90;;;0.90;;
1328;SDS011;658;48.820;9.354;2023-07-29T11:32:46;0.70;;;0.70;;
1328;SDS011;658;48.820;9.354;2023-07-29T11:36:47;0.60;;;0.60;;
1328;SDS011;658;48.820;9.354;2023-07-29T11:40:54;0.77;;;0.67;;
1328;SDS011;658;48.820;9.354;2023-07-29T11:44:58;0.93;;;0.93;;
1328;SDS011;658;48.820;9.354;2023-07-29T11:48:59;1.33;;;0.80;;
1328;SDS011;658;48.820;9.354;2023-07-29T11:53:01;0.87;;;0.70;;
1328;SDS011;658;48.820;9.354;2023-07-29T11:57:01;0.73;;;0.73;;
1328;SDS011;658;48.820;9.354;2023-07-29T12:01:05;0.70;;;0.70;;
1328;SDS011;658;48.820;9.354;2023-07-29T12:05:08;0.80;;;0.80;;
1328;SDS011;658;48.820;9.354;2023-07-29T12:09:10;0.60;;;0.60;;
1328;SDS011;658;48.820;9.354;2023-07-29T12:13:10;0.70;;;0.70;;
1328;SDS011;658;48.820;9.354;2023-07-29T12:17:11;0.67;;;0.67;;
1328;SDS011;658;48.820;9.354;2023-07-29T12:21:13;0.70;;;0.70;;
1328;SDS011;658;48.820;9.354;2023-07-29T12:25:14;0.73;;;0.73;;
1328;SDS011;658;48.820;9.354;2023-07-29T12:29:16;0.70;;;0.70;;
1328;SDS011;658;48.820;9.354;2023-07-29T12:33:30;0.70;;;0.70;;
1328;SDS011;658;48.820;9.354;2023-07-29T12:37:35;0.80;;;0.80;;
1328;SDS011;658;48.820;9.354;2023-07-29T12:41:35;0.70;;;0.70;;
1328;SDS011;658;48.820;9.354;2023-07-29T12:45:38;0.70;;;0.70;;
1328;SDS011;658;48.820;9.354;2023-07-29T12:49:42;0.60;;;0.60;;
1328;SDS011;658;48.820;9.354;2023-07-29T12:53:42;0.60;;;0.60;;
1328;SDS011;658;48.820;9.354;2023-07-29T12:57:43;0.90;;;0.90;;
1328;SDS011;658;48.820;9.354;2023-07-29T13:01:43;0.67;;;0.67;;
1328;SDS011;658;48.820;9.354;2023-07-29T13:05:44;0.60;;;0.60;;
1328;SDS011;658;48.820;9.354;2023-07-29T13:09:45;0.80;;;0.80;;
1328;SDS011;658;48.820;9.354;2023-07-29T13:13:45;0.80;;;0.80;;
1328;SDS011;658;48.820;9.354;2023-07-29T13:17:46;0.90;;;0.90;;
1328;SDS011;658;48.820;9.354;2023-07-29T13:21:46;0.70;;;0.70;;
1328;SDS011;658;48.820;9.354;2023-07-29T13:25:49;0.80;;;0.80;;
1328;SDS011;658;48.820;9.354;2023-07-29T13:29:50;0.77;;;0.77;;
1328;SDS011;658;48.820;9.354;2023-07-29T13:33:50;0.70;;;0.70;;
1328;SDS011;658;48.820;9.354;2023-07-29T13:37:51;0.90;;;0.90;;
1328;SDS011;658;48.820;9.354;2023-07-29T13:41:51;0.80;;;0.80;;
1328;SDS011;658;48.820;9.354;2023-07-29T13:45:52;0.60;;;0.60;;
1328;SDS011;658;48.820;9.354;2023-07-29T13:49:54;0.90;;;0.90;;
1328;SDS011;658;48.820;9.354;2023-07-29T13:53:55;0.87;;;0.87;;
1328;SDS011;658;48.820;9.354;2023-07-29T13:57:56;0.70;;;0.70;;
1328;SDS011;658;48.820;9.354;2023-07-29T14:01:56;0.70;;;0.70;;
1328;SDS011;658;48.820;9.354;2023-07-29T14:05:57;0.80;;;0.80;;
1328;SDS011;658;48.820;9.354;2023-07-29T14:09:58;1.07;;;1.03;;
1328;SDS011;658;48.820;9.354;2023-07-29T14:13:58;1.23;;;1.13;;
1328;SDS011;658;48.820;9.354;2023-07-29T14:18:01;0.87;;;0.87;;
1328;SDS011;658;48.820;9.354;2023-07-29T14:22:02;0.70;;;0.70;;
1328;SDS011;658;48.820;9.354;2023-07-29T14:26:03;1.00;;;0.90;;
1328;SDS011;658;48.820;9.354;2023-07-29T14:30:04;1.10;;;1.00;;
1328;SDS011;658;48.820;9.354;2023-07-29T14:34:05;0.73;;;0.73;;
1328;SDS011;658;48.820;9.354;2023-07-29T14:38:06;0.80;;;0.80;;
1328;SDS011;658;48.820;9.354;2023-07-29T14:42:08;0.80;;;0.80;;
1328;SDS011;658;48.820;9.354;2023-07-29T14:46:09;0.73;;;0.73;;
1328;SDS011;658;48.820;9.354;2023-07-29T14:50:10;0.80;;;0.80;;
1328;SDS011;658;48.820;9.354;2023-07-29T14:54:10;1.20;;;1.10;;
1328;SDS011;658;48.820;9.354;2023-07-29T14:58:11;0.80;;;0.80;;
1328;SDS011;658;48.820;9.354;2023-07-29T15:02:12;0.93;;;0.93;;
1328;SDS011;658;48.820;9.354;2023-07-29T15:06:12;0.90;;;0.90;;
1328;SDS011;658;48.820;9.354;2023-07-29T15:10:16;0.60;;;0.60;;
1328;SDS011;658;48.820;9.354;2023-07-29T15:14:17;0.70;;;0.70;;
1328;SDS011;658;48.820;9.354;2023-07-29T15:18:17;0.80;;;0.80;;
1328;SDS011;658;48.820;9.354;2023-07-29T15:22:18;0.70;;;0.70;;
1328;SDS011;658;48.820;9.354;2023-07-29T15:26:19;0.83;;;0.83;;
1328;SDS011;658;48.820;9.354;2023-07-29T15:30:19;0.73;;;0.73;;
1328;SDS011;658;48.820;9.354;2023-07-29T15:34:20;0.90;;;0.90;;
1328;SDS011;658;48.820;9.354;2023-07-29T15:38:23;0.80;;;0.80;;
1328;SDS011;658;48.820;9.354;2023-07-29T15:42:26;0.90;;;0.90;;
1328;SDS011;658;48.820;9.354;2023-07-29T15:46:27;0.90;;;0.90;;
1328;SDS011;658;48.820;9.354;2023-07-29T15:50:30;0.70;;;0.70;;
1328;SDS011;658;48.820;9.354;2023-07-29T15:54:33;0.90;;;0.80;;
1328;SDS011;658;48.820;9.354;2023-07-29T15:58:36;0.97;;;0.97;;
1328;SDS011;658;48.820;9.354;2023-07-29T16:02:38;0.80;;;0.80;;
1328;SDS011;658;48.820;9.354;2023-07-29T16:06:39;1.00;;;0.97;;
1328;SDS011;658;48.820;9.354;2023-07-29T16:10:40;0.77;;;0.77;;
1328;SDS011;658;48.820;9.354;2023-07-29T16:14:40;1.00;;;0.87;;
1328;SDS011;658;48.820;9.354;2023-07-29T16:18:41;0.80;;;0.80;;
1328;SDS011;658;48.820;9.354;2023-07-29T16:22:44;0.60;;;0.60;;
1328;SDS011;658;48.820;9.354;2023-07-29T16:26:44;0.90;;;0.90;;
1328;SDS011;658;48.820;9.354;2023-07-29T16:30:45;1.30;;;1.10;;
1328;SDS011;658;48.820;9.354;2023-07-29T16:34:48;1.00;;;1.00;;
1328;SDS011;658;48.820;9.354;2023-07-29T16:38:51;1.00;;;1.00;;
1328;SDS011;658;48.820;9.354;2023-07-29T16:42:52;0.80;;;0.80;;
1328;SDS011;658;48.820;9.354;2023-07-29T16:46:52;1.00;;;0.90;;
1328;SDS011;658;48.820;9.354;2023-07-29T16:50:53;0.80;;;0.80;;
1328;SDS011;658;48.820;9.354;2023-07-29T16:54:53;1.30;;;1.20;;
1328;SDS011;658;48.820;9.354;2023-07-29T16:58:54;0.90;;;0.90;;
1328;SDS011;658;48.820;9.354;2023-07-29T17:02:54;1.00;;;1.00;;
1328;SDS011;658;48.820;9.354;2023-07-29T17:06:57;0.97;;;0.83;;
1328;SDS011;658;48.820;9.354;2023-07-29T17:10:58;0.87;;;0.87;;
1328;SDS011;658;48.820;9.354;2023-07-29T17:14:58;1.03;;;0.97;;
1328;SDS011;658;48.820;9.354;2023-07-29T17:18:59;1.17;;;1.07;;
1328;SDS011;658;48.820;9.354;2023-07-29T17:23:02;0.90;;;0.90;;
1328;SDS011;658;48.820;9.354;2023-07-29T17:27:03;0.80;;;0.80;;
1328;SDS011;658;48.820;9.354;2023-07-29T17:31:04;1.10;;;1.10;;
1328;SDS011;658;48.820;9.354;2023-07-29T17:35:05;0.97;;;0.97;;
1328;SDS011;658;48.820;9.354;2023-07-29T17:39:05;0.90;;;0.90;;
1328;SDS011;658;48.820;9.354;2023-07-29T17:43:08;1.17;;;1.10;;
1328;SDS011;658;48.820;9.354;2023-07-29T17:47:09;0.90;;;0.90;;
1328;SDS011;658;48.820;9.354;2023-07-29T17:51:09;0.77;;;0.77;;
1328;SDS011;658;48.820;9.354;2023-07-29T17:55:10;0.80;;;0.80;;
1328;SDS011;658;48.820;9.354;2023-07-29T17:59:11;0.83;;;0.83;;
1328;SDS011;658;48.820;9.354;2023-07-29T18:03:11;1.30;;;1.20;;
1328;SDS011;658;48.820;9.354;2023-07-29T18:07:12;0.83;;;0.83;;
1328;SDS011;658;48.820;9.354;2023-07-29T18:11:13;0.70;;;0.70;;
1328;SDS011;658;48.820;9.354;2023-07-29T18:15:14;1.20;;;1.10;;
1328;SDS011;658;48.820;9.354;2023-07-29T18:19:15;1.17;;;1.07;;
1328;SDS011;658;48.820;9.354;2023-07-29T18:23:15;0.70;;;0.70;;
1328;SDS011;658;48.820;9.354;2023-07-29T18:27:16;0.80;;;0.80;;
1328;SDS011;658;48.820;9.354;2023-07-29T18:31:17;1.33;;;1.00;;
1328;SDS011;658;48.820;9.354;2023-07-29T18:35:17;0.90;;;0.80;;
1328;SDS011;658;48.820;9.354;2023-07-29T18:39:18;0.90;;;0.90;;
1328;SDS011;658;48.820;9.354;2023-07-29T18:43:21;0.90;;;0.90;;
1328;SDS011;658;48.820;9.354;2023-07-29T18:47:21;0.90;;;0.90;;
1328;SDS011;658;48.820;9.354;2023-07-29T18:51:22;0.77;;;0.77;;
1328;SDS011;658;48.820;9.354;2023-07-29T18:55:23;0.97;;;0.97;;
1328;SDS011;658;48.820;9.354;2023-07-29T18:59:28;1.00;;;1.00;;
1328;SDS011;658;48.820;9.354;2023-07-29T19:03:29;1.30;;;1.10;;
1328;SDS011;658;48.820;9.354;2023-07-29T19:07:30;0.90;;;0.90;;
1328;SDS011;658;48.820;9.354;2023-07-29T19:11:35;0.70;;;0.70;;
1328;SDS011;658;48.820;9.354;2023-07-29T19:15:35;0.97;;;0.97;;
1328;SDS011;658;48.820;9.354;2023-07-29T19:19:37;1.20;;;1.10;;
1328;SDS011;658;48.820;9.354;2023-07-29T19:23:40;0.90;;;0.90;;
1328;SDS011;658;48.820;9.354;2023-07-29T19:27:40;1.10;;;1.10;;
1328;SDS011;658;48.820;9.354;2023-07-29T19:31:41;1.00;;;1.00;;
1328;SDS011;658;48.820;9.354;2023-07-29T19:35:42;1.07;;;1.00;;
1328;SDS011;658;48.820;9.354;2023-07-29T19:39:42;0.90;;;0.90;;
1328;SDS011;658;48.820;9.354;2023-07-29T19:43:43;1.20;;;1.10;;
1328;SDS011;658;48.820;9.354;2023-07-29T19:47:47;1.00;;;1.00;;
1328;SDS011;658;48.820;9.354;2023-07-29T19:51:48;0.97;;;0.97;;
1328;SDS011;658;48.820;9.354;2023-07-29T19:55:48;0.80;;;0.80;;
1328;SDS011;658;48.820;9.354;2023-07-29T19:59:51;1.00;;;1.00;;
1328;SDS011;658;48.820;9.354;2023-07-29T20:03:55;1.10;;;1.00;;
1328;SDS011;658;48.820;9.354;2023-07-29T20:07:55;1.00;;;1.00;;
1328;SDS011;658;48.820;9.354;2023-07-29T20:11:56;1.20;;;1.10;;
1328;SDS011;658;48.820;9.354;2023-07-29T20:15:58;0.90;;;0.90;;
1328;SDS011;658;48.820;9.354;2023-07-29T20:19:59;0.80;;;0.80;;
1328;SDS011;658;48.820;9.354;2023-07-29T20:24:00;1.30;;;1.20;;
1328;SDS011;658;48.820;9.354;2023-07-29T20:28:00;1.10;;;1.00;;
1328;SDS011;658;48.820;9.354;2023-07-29T20:32:01;1.03;;;1.00;;
1328;SDS011;658;48.820;9.354;2023-07-29T20:36:04;1.00;;;1.00;;
1328;SDS011;658;48.820;9.354;2023-07-29T20:40:05;0.80;;;0.80;;
1328;SDS011;658;48.820;9.354;2023-07-29T20:44:06;0.80;;;0.80;;
1328;SDS011;658;48.820;9.354;2023-07-29T20:48:10;1.10;;;1.00;;
1328;SDS011;658;48.820;9.354;2023-07-29T20:52:11;1.47;;;0.90;;
1328;SDS011;658;48.820;9.354;2023-07-29T20:56:14;0.80;;;0.80;;
1328;SDS011;658;48.820;9.354;2023-07-29T21:00:15;1.10;;;1.00;;
1328;SDS011;658;48.820;9.354;2023-07-29T21:04:16;0.90;;;0.90;;
1328;SDS011;658;48.820;9.354;2023-07-29T21:08:16;1.60;;;1.50;;
1328;SDS011;658;48.820;9.354;2023-07-29T21:12:17;3.00;;;1.37;;
1328;SDS011;658;48.820;9.354;2023-07-29T21:16:18;1.40;;;1.30;;
1328;SDS011;658;48.820;9.354;2023-07-29T21:20:21;0.90;;;0.90;;
1328;SDS011;658;48.820;9.354;2023-07-29T21:24:22;1.07;;;1.07;;
1328;SDS011;658;48.820;9.354;2023-07-29T21:28:22;1.17;;;1.10;;
1328;SDS011;658;48.820;9.354;2023-07-29T21:32:23;1.00;;;1.00;;
1328;SDS011;658;48.820;9.354;2023-07-29T21:36:23;1.10;;;1.10;;
1328;SDS011;658;48.820;9.354;2023-07-29T21:40:24;1.30;;;1.20;;
1328;SDS011;658;48.820;9.354;2023-07-29T21:44:24;0.90;;;0.90;;
1328;SDS011;658;48.820;9.354;2023-07-29T21:48:25;1.30;;;1.20;;
1328;SDS011;658;48.820;9.354;2023-07-29T21:52:27;0.87;;;0.87;;
1328;SDS011;658;48.820;9.354;2023-07-29T21:56:28;1.27;;;1.17;;
1328;SDS011;658;48.820;9.354;2023-07-29T22:00:28;1.40;;;1.30;;
1328;SDS011;658;48.820;9.354;2023-07-29T22:04:29;1.30;;;1.20;;
1328;SDS011;658;48.820;9.354;2023-07-29T22:08:29;1.40;;;1.30;;
1328;SDS011;658;48.820;9.354;2023-07-29T22:12:30;1.30;;;1.20;;
1328;SDS011;658;48.820;9.354;2023-07-29T22:16:31;1.07;;;1.00;;
1328;SDS011;658;48.820;9.354;2023-07-29T22:20:34;1.23;;;1.13;;
1328;SDS011;658;48.820;9.354;2023-07-29T22:24:34;1.03;;;1.03;;
1328;SDS011;658;48.820;9.354;2023-07-29T22:28:35;1.00;;;1.00;;
1328;SDS011;658;48.820;9.354;2023-07-29T22:32:38;1.37;;;1.27;;
1328;SDS011;658;48.820;9.354;2023-07-29T22:36:38;1.07;;;1.07;;
1328;SDS011;658;48.820;9.354;2023-07-29T22:40:41;1.20;;;1.10;;
1328;SDS011;658;48.820;9.354;2023-07-29T22:44:49;1.43;;;1.33;;
1328;SDS011;658;48.820;9.354;2023-07-29T22:48:52;1.23;;;1.17;;
1328;SDS011;658;48.820;9.354;2023-07-29T22:52:53;1.27;;;1.17;;
1328;SDS011;658;48.820;9.354;2023-07-29T22:56:53;1.30;;;1.20;;
1328;SDS011;658;48.820;9.354;2023-07-29T23:00:55;2.20;;;1.03;;
1328;SDS011;658;48.820;9.354;2023-07-29T23:04:56;1.20;;;1.10;;
1328;SDS011;658;48.820;9.354;2023-07-29T23:08:59;1.03;;;1.03;;
1328;SDS011;658;48.820;9.354;2023-07-29T23:13:00;2.23;;;1.10;;
1328;SDS011;658;48.820;9.354;2023-07-29T23:17:03;1.30;;;1.20;;
1328;SDS011;658;48.820;9.354;2023-07-29T23:21:04;1.20;;;1.20;;
1328;SDS011;658;48.820;9.354;2023-07-29T23:25:04;1.30;;;1.20;;
1328;SDS011;658;48.820;9.354;2023-07-29T23:29:05;1.37;;;1.27;;
1328;SDS011;658;48.820;9.354;2023-07-29T23:33:06;1.50;;;1.40;;
1328;SDS011;658;48.820;9.354;2023-07-29T23:37:07;0.97;;;0.97;;
1328;SDS011;658;48.820;9.354;2023-07-29T23:41:07;1.13;;;1.10;;
1328;SDS011;658;48.820;9.354;2023-07-29T23:45:08;1.40;;;1.30;;
1328;SDS011;658;48.820;9.354;2023-07-29T23:49:09;1.20;;;1.10;;
1328;SDS011;658;48.820;9.354;2023-07-29T23:53:10;1.53;;;1.43;;
1328;SDS011;658;48.820;9.354;2023-07-29T23:57:11;1.60;;;1.50;;
